Time;durP1;ratioP1;P1;durP2;ratioP2;P2;SDS_P1;SDS_P2;PMS_P1;PMS_P2;Temp;Humidity;BMP_temperature;BMP_pressure;BME280_temperature;BME280_humidity;BME280_pressure;Samples;Min_cycle;Max_cycle;Signal;HPM_P1;HPM_P2
2022/10/06 00:00:31;;;;;;;15.25;3.63;;;;;;;;;;3377494;42;20173;-66
2022/10/06 00:03:02;;;;;;;15.75;4.03;;;;;;;;;;3381333;42;20644;-64
2022/10/06 00:05:33;;;;;;;10.20;3.40;;;;;;;;;;3383593;42;20604;-64
2022/10/06 00:08:05;;;;;;;13.93;4.13;;;;;;;;;;3383652;42;20113;-64
2022/10/06 00:10:36;;;;;;;10.32;3.67;;;;;;;;;;3376226;42;20135;-66
2022/10/06 00:13:07;;;;;;;14.45;4.25;;;;;;;;;;3383688;42;20098;-63
2022/10/06 00:15:38;;;;;;;14.38;4.10;;;;;;;;;;3376177;42;20173;-64
2022/10/06 00:18:10;;;;;;;12.43;4.05;;;;;;;;;;3376691;42;20079;-64
2022/10/06 00:20:44;;;;;;;11.73;4.67;;;;;;;;;;3383744;42;20144;-64
2022/10/06 00:23:15;;;;;;;12.80;4.22;;;;;;;;;;3383162;42;20620;-64
2022/10/06 00:25:46;;;;;;;12.90;4.45;;;;;;;;;;3383904;42;20094;-64
2022/10/06 00:28:18;;;;;;;14.07;3.90;;;;;;;;;;3384876;42;20087;-64
2022/10/06 00:30:52;;;;;;;16.60;4.45;;;;;;;;;;3383677;42;20094;-65
2022/10/06 00:33:23;;;;;;;12.77;3.90;;;;;;;;;;3383408;42;20233;-64
2022/10/06 00:35:57;;;;;;;10.85;4.15;;;;;;;;;;3381675;42;20083;-64
2022/10/06 00:38:28;;;;;;;16.35;4.22;;;;;;;;;;3383364;42;20612;-64
2022/10/06 00:41:00;;;;;;;12.70;4.32;;;;;;;;;;3383321;42;20098;-64
2022/10/06 00:43:46;;;;;;;16.35;4.72;;;;;;;;;;3376205;42;20086;-65
2022/10/06 00:46:23;;;;;;;11.37;4.27;;;;;;;;;;3389313;42;20099;-63
2022/10/06 00:49:22;;;;;;;14.85;5.22;;;;;;;;;;3376516;42;20137;-64
2022/10/06 00:51:56;;;;;;;13.43;4.97;;;;;;;;;;3381871;42;20109;-63
2022/10/06 00:54:27;;;;;;;13.95;5.05;;;;;;;;;;3379274;42;20516;-63
2022/10/06 00:56:58;;;;;;;15.55;4.93;;;;;;;;;;3368858;42;20184;-65
2022/10/06 00:59:30;;;;;;;13.70;5.00;;;;;;;;;;3376423;42;20086;-64
2022/10/06 01:02:13;;;;;;;15.18;5.15;;;;;;;;;;3375570;42;20176;-63
2022/10/06 01:04:46;;;;;;;12.82;4.55;;;;;;;;;;3383875;42;20205;-64
2022/10/06 01:07:18;;;;;;;13.25;4.55;;;;;;;;;;3376258;42;20595;-70
2022/10/06 01:09:49;;;;;;;15.50;4.80;;;;;;;;;;3376354;42;20146;-65
2022/10/06 01:12:20;;;;;;;13.27;5.03;;;;;;;;;;3375764;42;20090;-63
2022/10/06 01:14:52;;;;;;;14.38;4.72;;;;;;;;;;3373228;42;20091;-64
2022/10/06 01:17:36;;;;;;;13.45;4.82;;;;;;;;;;3373946;42;20095;-63
2022/10/06 01:20:09;;;;;;;12.60;4.68;;;;;;;;;;3375705;42;20113;-64
2022/10/06 01:22:43;;;;;;;16.58;5.18;;;;;;;;;;3376804;42;20513;-64
2022/10/06 01:25:15;;;;;;;15.77;5.63;;;;;;;;;;3377415;42;20091;-63
2022/10/06 01:27:52;;;;;;;14.27;5.40;;;;;;;;;;3377104;42;20087;-64
2022/10/06 01:30:40;;;;;;;13.50;5.05;;;;;;;;;;3369318;42;20095;-65
2022/10/06 01:33:11;;;;;;;11.73;4.43;;;;;;;;;;3376789;42;20095;-64
2022/10/06 01:35:52;;;;;;;16.42;4.70;;;;;;;;;;3377178;42;20560;-63
2022/10/06 01:38:23;;;;;;;12.40;5.00;;;;;;;;;;3367180;42;20105;-63
2022/10/06 01:40:55;;;;;;;15.30;4.43;;;;;;;;;;3382892;42;20099;-64
2022/10/06 01:43:26;;;;;;;12.57;4.78;;;;;;;;;;3379305;42;20103;-62
2022/10/06 01:45:57;;;;;;;12.18;4.50;;;;;;;;;;3375445;42;20512;-64
2022/10/06 01:48:28;;;;;;;10.30;4.07;;;;;;;;;;3382841;42;20535;-63
2022/10/06 01:50:59;;;;;;;11.47;4.00;;;;;;;;;;3382599;42;20094;-63
2022/10/06 01:53:31;;;;;;;10.75;4.10;;;;;;;;;;3374418;42;20154;-63
2022/10/06 01:56:02;;;;;;;9.75;3.95;;;;;;;;;;3382739;42;20583;-64
2022/10/06 01:58:33;;;;;;;11.65;4.07;;;;;;;;;;3383060;42;20134;-64
2022/10/06 02:01:08;;;;;;;11.15;4.10;;;;;;;;;;3382867;42;20106;-64
2022/10/06 02:03:39;;;;;;;10.40;3.97;;;;;;;;;;3375339;42;20166;-63
2022/10/06 02:06:10;;;;;;;10.77;3.70;;;;;;;;;;3380446;42;20083;-66
2022/10/06 02:08:42;;;;;;;12.68;4.13;;;;;;;;;;3382500;42;20150;-63
2022/10/06 02:11:13;;;;;;;9.73;3.90;;;;;;;;;;3382662;42;20110;-66
2022/10/06 02:13:44;;;;;;;11.77;4.47;;;;;;;;;;3382581;42;20676;-64
2022/10/06 02:16:15;;;;;;;9.57;3.80;;;;;;;;;;3382739;42;20145;-64
2022/10/06 02:18:46;;;;;;;10.15;3.78;;;;;;;;;;3382825;42;20098;-63
2022/10/06 02:21:18;;;;;;;8.80;3.83;;;;;;;;;;3382564;42;20095;-63
2022/10/06 02:23:50;;;;;;;10.88;3.80;;;;;;;;;;3375519;42;20124;-64
2022/10/06 02:26:21;;;;;;;9.90;4.03;;;;;;;;;;3382749;42;20110;-63
2022/10/06 02:28:52;;;;;;;10.43;4.00;;;;;;;;;;3382887;42;20103;-64
2022/10/06 02:31:24;;;;;;;11.05;4.57;;;;;;;;;;3376081;42;20541;-63
2022/10/06 02:33:55;;;;;;;9.55;4.07;;;;;;;;;;3384382;42;20095;-64
2022/10/06 02:36:27;;;;;;;12.10;4.30;;;;;;;;;;3391422;42;20209;-64
2022/10/06 02:38:58;;;;;;;11.57;4.50;;;;;;;;;;3384237;42;20086;-64
2022/10/06 02:41:29;;;;;;;10.17;4.30;;;;;;;;;;3384314;42;20099;-65
2022/10/06 02:44:01;;;;;;;9.80;4.20;;;;;;;;;;3384366;42;20087;-64
2022/10/06 02:46:32;;;;;;;9.88;4.20;;;;;;;;;;3384198;42;20105;-65
2022/10/06 02:49:03;;;;;;;11.38;4.45;;;;;;;;;;3375318;42;20101;-65
2022/10/06 02:51:34;;;;;;;11.68;4.45;;;;;;;;;;3384064;42;20162;-63
2022/10/06 02:54:05;;;;;;;12.27;4.57;;;;;;;;;;3384047;42;20569;-66
2022/10/06 02:56:37;;;;;;;13.32;4.40;;;;;;;;;;3383771;42;20148;-63
2022/10/06 02:59:09;;;;;;;12.57;4.50;;;;;;;;;;3384154;42;20566;-64
2022/10/06 03:01:40;;;;;;;10.63;4.25;;;;;;;;;;3385094;42;20572;-66
2022/10/06 03:04:11;;;;;;;9.43;3.78;;;;;;;;;;3384723;42;20091;-66
2022/10/06 03:06:42;;;;;;;10.97;3.80;;;;;;;;;;3384923;42;20940;-63
2022/10/06 03:09:14;;;;;;;11.55;3.78;;;;;;;;;;3380130;42;20086;-64
2022/10/06 03:11:45;;;;;;;13.13;4.13;;;;;;;;;;3379587;42;20099;-64
2022/10/06 03:14:16;;;;;;;11.70;4.50;;;;;;;;;;3383163;42;20102;-64
2022/10/06 03:16:49;;;;;;;10.63;4.22;;;;;;;;;;3379835;42;20099;-65
2022/10/06 03:19:20;;;;;;;9.43;3.97;;;;;;;;;;3383933;42;20091;-65
2022/10/06 03:21:51;;;;;;;9.77;4.10;;;;;;;;;;3384091;42;20102;-64
2022/10/06 03:24:22;;;;;;;10.65;4.60;;;;;;;;;;3383929;42;20098;-64
2022/10/06 03:26:54;;;;;;;10.45;4.20;;;;;;;;;;3383782;42;20528;-64
2022/10/06 03:29:25;;;;;;;10.88;4.40;;;;;;;;;;3383459;42;20087;-64
2022/10/06 03:31:57;;;;;;;10.37;4.40;;;;;;;;;;3383565;42;20138;-65
2022/10/06 03:34:29;;;;;;;11.10;3.83;;;;;;;;;;3383143;42;20096;-66
2022/10/06 03:37:00;;;;;;;12.10;4.40;;;;;;;;;;3384329;42;20162;-67
2022/10/06 03:39:33;;;;;;;12.00;4.13;;;;;;;;;;3384148;42;20138;-65
2022/10/06 03:42:04;;;;;;;11.63;3.90;;;;;;;;;;3376520;42;20098;-64
2022/10/06 03:44:35;;;;;;;11.93;4.67;;;;;;;;;;3383151;42;20101;-64
2022/10/06 03:47:07;;;;;;;11.77;4.30;;;;;;;;;;3383256;42;20193;-64
2022/10/06 03:49:38;;;;;;;11.95;4.60;;;;;;;;;;3377253;42;20564;-65
2022/10/06 03:52:09;;;;;;;11.77;4.70;;;;;;;;;;3387360;42;20110;-65
2022/10/06 03:54:40;;;;;;;15.05;4.85;;;;;;;;;;3378490;42;20373;-63
2022/10/06 03:57:11;;;;;;;9.70;4.17;;;;;;;;;;3379283;42;20087;-64
2022/10/06 03:59:42;;;;;;;11.32;4.95;;;;;;;;;;3379359;42;20101;-65
2022/10/06 04:02:13;;;;;;;10.40;4.22;;;;;;;;;;3379087;42;20551;-64
2022/10/06 04:04:45;;;;;;;12.13;4.65;;;;;;;;;;3379463;42;20641;-65
2022/10/06 04:07:16;;;;;;;11.73;4.95;;;;;;;;;;3378500;42;20596;-67
2022/10/06 04:09:47;;;;;;;11.60;4.67;;;;;;;;;;3372122;42;20168;-65
2022/10/06 04:12:18;;;;;;;12.85;4.85;;;;;;;;;;3382379;42;20093;-64
2022/10/06 04:14:49;;;;;;;14.35;4.88;;;;;;;;;;3372016;42;20646;-64
2022/10/06 04:17:20;;;;;;;11.93;4.85;;;;;;;;;;3379167;42;20619;-65
2022/10/06 04:19:51;;;;;;;11.10;4.55;;;;;;;;;;3382425;42;20596;-65
2022/10/06 04:22:23;;;;;;;13.23;5.50;;;;;;;;;;3386439;42;20091;-64
2022/10/06 04:24:54;;;;;;;12.38;5.30;;;;;;;;;;3381175;42;20598;-65
2022/10/06 04:27:27;;;;;;;12.52;5.70;;;;;;;;;;3382959;42;20086;-65
2022/10/06 04:29:59;;;;;;;16.25;5.63;;;;;;;;;;3383287;42;20084;-66
2022/10/06 04:32:30;;;;;;;14.35;5.20;;;;;;;;;;3382934;42;20087;-65
2022/10/06 04:35:01;;;;;;;11.20;5.30;;;;;;;;;;3383162;42;20098;-64
2022/10/06 04:37:32;;;;;;;14.45;5.43;;;;;;;;;;3382863;42;20191;-63
2022/10/06 04:40:04;;;;;;;13.95;5.18;;;;;;;;;;3383150;42;20638;-64
2022/10/06 04:42:36;;;;;;;16.73;5.78;;;;;;;;;;3382527;42;20164;-64
2022/10/06 04:45:07;;;;;;;14.57;5.55;;;;;;;;;;3389994;42;20657;-66
2022/10/06 04:47:39;;;;;;;14.50;5.33;;;;;;;;;;3382215;42;20504;-66
2022/10/06 04:50:10;;;;;;;10.73;4.63;;;;;;;;;;3382299;42;20151;-64
2022/10/06 04:52:41;;;;;;;12.10;5.50;;;;;;;;;;3382624;42;20098;-65
2022/10/06 04:55:12;;;;;;;12.52;4.65;;;;;;;;;;3382264;42;20600;-65
2022/10/06 04:57:43;;;;;;;13.43;4.85;;;;;;;;;;3382021;42;20560;-65
2022/10/06 05:00:24;;;;;;;10.60;4.13;;;;;;;;;;3382360;42;20593;-63
2022/10/06 05:02:55;;;;;;;10.27;4.40;;;;;;;;;;3382427;42;20187;-63
2022/10/06 05:05:26;;;;;;;12.18;4.90;;;;;;;;;;3382571;42;20103;-65
2022/10/06 05:07:57;;;;;;;8.48;3.75;;;;;;;;;;3382594;42;20095;-65
2022/10/06 05:10:28;;;;;;;10.05;4.00;;;;;;;;;;3382365;42;20508;-63
2022/10/06 05:12:59;;;;;;;10.00;3.90;;;;;;;;;;3382618;42;20126;-65
2022/10/06 05:15:31;;;;;;;8.38;3.80;;;;;;;;;;3381162;42;20097;-65
2022/10/06 05:18:02;;;;;;;7.93;3.58;;;;;;;;;;3380814;42;20094;-64
2022/10/06 05:20:33;;;;;;;9.90;3.50;;;;;;;;;;3388256;42;20212;-64
2022/10/06 05:23:06;;;;;;;9.18;3.40;;;;;;;;;;3381239;42;20105;-64
2022/10/06 05:25:37;;;;;;;7.57;3.30;;;;;;;;;;3383361;42;20142;-64
2022/10/06 05:28:08;;;;;;;9.45;3.58;;;;;;;;;;3382519;42;20146;-66
2022/10/06 05:30:39;;;;;;;6.90;3.05;;;;;;;;;;3382420;42;20563;-66
2022/10/06 05:33:11;;;;;;;9.10;3.30;;;;;;;;;;3381881;42;20177;-66
2022/10/06 05:35:56;;;;;;;8.02;3.28;;;;;;;;;;3382396;42;20144;-65
2022/10/06 05:38:27;;;;;;;6.77;3.00;;;;;;;;;;3375767;42;20087;-64
2022/10/06 05:41:11;;;;;;;8.30;2.88;;;;;;;;;;3380069;42;20113;-65
2022/10/06 05:43:42;;;;;;;7.22;2.75;;;;;;;;;;3380926;42;20122;-64
2022/10/06 05:46:24;;;;;;;7.80;2.83;;;;;;;;;;3382475;42;20138;-64
2022/10/06 05:48:56;;;;;;;6.75;3.00;;;;;;;;;;3374612;42;20091;-66
2022/10/06 05:51:28;;;;;;;6.67;2.80;;;;;;;;;;3381037;42;20600;-65
2022/10/06 05:54:00;;;;;;;7.47;2.70;;;;;;;;;;3382786;42;20083;-67
2022/10/06 05:56:33;;;;;;;6.85;2.80;;;;;;;;;;3378992;42;20098;-65
2022/10/06 05:59:04;;;;;;;8.25;2.88;;;;;;;;;;3382409;42;20091;-65
2022/10/06 06:01:38;;;;;;;6.32;2.80;;;;;;;;;;3382320;42;20099;-67
2022/10/06 06:04:11;;;;;;;6.10;2.60;;;;;;;;;;3382543;42;20102;-64
2022/10/06 06:06:43;;;;;;;6.47;2.60;;;;;;;;;;3383833;42;20087;-66
2022/10/06 06:09:16;;;;;;;6.60;2.80;;;;;;;;;;3379127;42;20209;-66
2022/10/06 06:11:48;;;;;;;8.50;3.20;;;;;;;;;;3383873;42;20573;-64
2022/10/06 06:17:10;;;;;;;6.20;2.60;;;;;;;;;;3390996;42;20655;-65
2022/10/06 06:19:41;;;;;;;6.10;2.90;;;;;;;;;;3378842;42;20462;-65
2022/10/06 06:22:12;;;;;;;5.82;2.58;;;;;;;;;;3380990;42;20095;-66
2022/10/06 06:24:44;;;;;;;6.78;2.63;;;;;;;;;;3385603;42;20105;-66
2022/10/06 06:27:16;;;;;;;6.30;2.70;;;;;;;;;;3384350;42;20134;-65
2022/10/06 06:29:47;;;;;;;6.03;2.40;;;;;;;;;;3383356;42;20684;-65
2022/10/06 06:32:18;;;;;;;5.70;2.30;;;;;;;;;;3383867;42;20090;-64
2022/10/06 06:34:51;;;;;;;6.00;2.50;;;;;;;;;;3376508;42;20110;-64
2022/10/06 06:37:22;;;;;;;6.45;2.25;;;;;;;;;;3383947;42;20095;-67
2022/10/06 06:39:53;;;;;;;5.82;2.10;;;;;;;;;;3384213;42;20139;-65
2022/10/06 06:42:25;;;;;;;5.97;2.20;;;;;;;;;;3383984;42;20210;-66
2022/10/06 06:44:56;;;;;;;5.72;1.80;;;;;;;;;;3388417;42;20154;-66
2022/10/06 06:47:27;;;;;;;5.47;2.10;;;;;;;;;;3383787;42;20098;-65
2022/10/06 06:49:59;;;;;;;5.47;2.00;;;;;;;;;;3379710;42;20094;-64
2022/10/06 06:52:31;;;;;;;5.00;2.05;;;;;;;;;;3391268;42;20091;-64
2022/10/06 06:55:02;;;;;;;5.47;1.83;;;;;;;;;;3384015;42;20087;-69
2022/10/06 06:57:33;;;;;;;6.10;2.17;;;;;;;;;;3384673;42;20121;-65
2022/10/06 07:00:06;;;;;;;8.07;2.20;;;;;;;;;;3380390;42;20477;-66
2022/10/06 07:02:37;;;;;;;5.32;1.98;;;;;;;;;;3382412;42;20091;-66
2022/10/06 07:05:10;;;;;;;6.10;2.17;;;;;;;;;;3383935;42;20568;-66
2022/10/06 07:07:41;;;;;;;5.80;2.00;;;;;;;;;;3376257;42;20581;-64
2022/10/06 07:10:12;;;;;;;5.18;2.20;;;;;;;;;;3383699;42;20099;-64
2022/10/06 07:12:44;;;;;;;5.65;2.10;;;;;;;;;;3383419;42;20592;-65
2022/10/06 07:26:35;;;;;;;5.57;2.30;;;;;;;;;;3372951;42;20098;-65
2022/10/06 07:29:06;;;;;;;7.82;3.55;;;;;;;;;;3376743;42;20150;-65
2022/10/06 07:31:38;;;;;;;6.15;2.20;;;;;;;;;;3383469;42;20091;-67
2022/10/06 07:34:09;;;;;;;5.83;2.30;;;;;;;;;;3382062;42;20569;-67
2022/10/06 07:36:40;;;;;;;6.03;2.15;;;;;;;;;;3383337;42;20167;-69
2022/10/06 07:39:11;;;;;;;5.57;2.50;;;;;;;;;;3383264;42;20102;-68
2022/10/06 07:41:43;;;;;;;5.80;2.15;;;;;;;;;;3383456;42;20151;-65
2022/10/06 07:44:14;;;;;;;6.15;2.70;;;;;;;;;;3383606;42;20138;-69
2022/10/06 07:46:45;;;;;;;5.87;2.00;;;;;;;;;;3383703;42;20163;-65
2022/10/06 07:49:16;;;;;;;7.22;2.22;;;;;;;;;;3382683;42;20094;-66
2022/10/06 07:51:48;;;;;;;6.85;2.10;;;;;;;;;;3383292;42;20161;-69
2022/10/06 07:54:19;;;;;;;4.97;1.98;;;;;;;;;;3381126;42;20552;-65
2022/10/06 07:56:51;;;;;;;6.45;2.10;;;;;;;;;;3381169;42;20503;-65
2022/10/06 07:59:22;;;;;;;6.10;2.20;;;;;;;;;;3383171;42;20510;-65
2022/10/06 08:01:53;;;;;;;6.18;2.20;;;;;;;;;;3375923;42;20153;-65
2022/10/06 08:04:24;;;;;;;6.47;2.47;;;;;;;;;;3373379;42;20101;-67
2022/10/06 08:06:57;;;;;;;5.60;2.30;;;;;;;;;;3383076;42;20103;-65
2022/10/06 08:09:29;;;;;;;6.03;2.28;;;;;;;;;;3382283;42;20102;-65
2022/10/06 08:12:31;;;;;;;5.80;2.43;;;;;;;;;;3381248;42;20101;-65
2022/10/06 08:14:51;;;;;;;5.35;2.13;;;;;;;;;;3371281;42;20113;-65
2022/10/06 08:17:22;;;;;;;5.80;2.22;;;;;;;;;;3390572;42;20093;-67
2022/10/06 08:19:53;;;;;;;8.20;2.50;;;;;;;;;;3383065;42;20094;-64
2022/10/06 08:22:28;;;;;;;6.05;2.00;;;;;;;;;;3382976;42;20095;-64
2022/10/06 08:24:59;;;;;;;5.67;2.20;;;;;;;;;;3382646;42;20106;-69
2022/10/06 08:27:31;;;;;;;7.13;2.05;;;;;;;;;;3382566;42;20512;-65
2022/10/06 08:30:04;;;;;;;5.30;2.10;;;;;;;;;;3375416;42;20102;-63
2022/10/06 08:32:36;;;;;;;6.32;2.10;;;;;;;;;;3382595;42;20105;-63
2022/10/06 08:35:08;;;;;;;5.68;2.05;;;;;;;;;;3382830;42;20174;-66
2022/10/06 08:37:39;;;;;;;5.43;2.00;;;;;;;;;;3382868;42;20083;-66
2022/10/06 08:40:12;;;;;;;5.47;2.10;;;;;;;;;;3382707;42;20086;-66
2022/10/06 08:42:57;;;;;;;4.80;1.83;;;;;;;;;;3375747;42;20094;-65
2022/10/06 08:45:36;;;;;;;4.63;1.63;;;;;;;;;;3363018;42;20142;-67
2022/10/06 08:48:14;;;;;;;5.18;1.60;;;;;;;;;;3372581;42;20105;-64
2022/10/06 08:50:52;;;;;;;4.43;1.37;;;;;;;;;;3382861;42;20095;-66
2022/10/06 08:53:45;;;;;;;5.57;1.48;;;;;;;;;;3385974;42;20570;-65
2022/10/06 08:56:19;;;;;;;5.28;1.45;;;;;;;;;;3376506;42;20094;-66
2022/10/06 08:58:51;;;;;;;4.70;1.50;;;;;;;;;;3375346;42;20637;-68
2022/10/06 09:01:32;;;;;;;5.50;1.50;;;;;;;;;;3375664;42;20109;-65
2022/10/06 09:04:06;;;;;;;4.47;1.30;;;;;;;;;;3375746;42;20496;-66
2022/10/06 09:06:45;;;;;;;4.43;1.42;;;;;;;;;;3382488;42;20090;-67
2022/10/06 09:09:34;;;;;;;6.60;1.48;;;;;;;;;;3375602;42;20112;-66
2022/10/06 09:12:28;;;;;;;4.68;1.40;;;;;;;;;;3383378;42;20102;-65
2022/10/06 09:15:27;;;;;;;4.20;1.40;;;;;;;;;;3388468;42;20528;-66
2022/10/06 09:18:07;;;;;;;5.37;1.80;;;;;;;;;;3373965;42;20146;-65
2022/10/06 09:21:00;;;;;;;4.57;1.33;;;;;;;;;;3381107;42;20086;-65
2022/10/06 09:23:48;;;;;;;4.07;1.30;;;;;;;;;;3388005;42;20180;-65
2022/10/06 09:26:27;;;;;;;4.38;1.40;;;;;;;;;;3381590;42;20276;-66
2022/10/06 09:28:58;;;;;;;6.85;1.40;;;;;;;;;;3382985;42;20141;-65
2022/10/06 09:31:30;;;;;;;4.20;1.30;;;;;;;;;;3375865;42;20083;-66
2022/10/06 09:34:04;;;;;;;4.25;1.38;;;;;;;;;;3380007;42;20091;-65
2022/10/06 09:36:58;;;;;;;4.60;1.73;;;;;;;;;;3375791;42;20113;-65
2022/10/06 09:39:35;;;;;;;5.82;1.80;;;;;;;;;;3382845;42;20098;-66
2022/10/06 09:42:09;;;;;;;5.28;1.77;;;;;;;;;;3384707;42;20106;-66
2022/10/06 09:44:58;;;;;;;5.73;1.60;;;;;;;;;;3385278;42;20342;-66
2022/10/06 09:47:35;;;;;;;4.93;1.70;;;;;;;;;;3381409;42;20105;-65
2022/10/06 09:50:16;;;;;;;5.10;1.50;;;;;;;;;;3383415;42;20095;-68
2022/10/06 09:52:56;;;;;;;4.30;1.40;;;;;;;;;;3379179;42;20623;-65
2022/10/06 09:55:36;;;;;;;4.43;1.60;;;;;;;;;;3384305;42;20113;-65
2022/10/06 09:58:28;;;;;;;4.97;1.60;;;;;;;;;;3385289;42;20573;-65
2022/10/06 10:01:04;;;;;;;6.10;1.40;;;;;;;;;;3384197;42;20160;-64
2022/10/06 10:03:42;;;;;;;5.88;1.50;;;;;;;;;;3375315;42;20150;-68
2022/10/06 10:06:21;;;;;;;5.10;1.63;;;;;;;;;;3384312;42;20095;-63
2022/10/06 10:09:18;;;;;;;5.25;1.50;;;;;;;;;;3374203;42;20095;-65
2022/10/06 10:15:22;;;;;;;9.02;1.50;;;;;;;;;;3389023;42;20087;-65
2022/10/06 10:17:57;;;;;;;4.80;1.50;;;;;;;;;;3390005;42;20190;-67
2022/10/06 10:20:37;;;;;;;4.70;1.63;;;;;;;;;;3370019;42;20553;-63
2022/10/06 10:23:28;;;;;;;4.45;1.55;;;;;;;;;;3373988;42;20146;-65
2022/10/06 10:26:15;;;;;;;5.17;1.60;;;;;;;;;;3382347;42;20154;-63
2022/10/06 10:28:59;;;;;;;4.75;1.55;;;;;;;;;;3382273;42;20491;-66
2022/10/06 10:31:50;;;;;;;4.40;1.50;;;;;;;;;;3381909;42;20557;-68
2022/10/06 10:34:57;;;;;;;4.18;1.45;;;;;;;;;;3375124;42;20086;-62
2022/10/06 10:37:37;;;;;;;6.07;1.65;;;;;;;;;;3383200;42;20198;-65
2022/10/06 10:40:17;;;;;;;6.03;1.80;;;;;;;;;;3384828;42;20164;-66
2022/10/06 10:42:50;;;;;;;5.10;2.00;;;;;;;;;;3375839;42;20639;-63
2022/10/06 10:45:36;;;;;;;5.57;1.95;;;;;;;;;;3377772;42;20097;-63
2022/10/06 10:48:36;;;;;;;5.53;1.88;;;;;;;;;;3382210;42;20083;-65
2022/10/06 10:51:37;;;;;;;5.20;1.90;;;;;;;;;;3383754;42;20091;-65
2022/10/06 10:54:12;;;;;;;5.40;1.80;;;;;;;;;;3376491;42;20154;-64
2022/10/06 10:56:43;;;;;;;5.20;2.03;;;;;;;;;;3369332;42;20158;-66
2022/10/06 10:59:29;;;;;;;7.20;2.00;;;;;;;;;;3383917;42;20102;-63
2022/10/06 11:02:11;;;;;;;6.25;1.90;;;;;;;;;;3377170;42;20099;-63
2022/10/06 11:04:46;;;;;;;5.47;1.88;;;;;;;;;;3382062;42;20610;-67
2022/10/06 11:07:30;;;;;;;5.40;1.90;;;;;;;;;;3376442;42;20086;-66
2022/10/06 11:10:25;;;;;;;5.28;1.60;;;;;;;;;;3382312;42;20098;-63
2022/10/06 11:13:02;;;;;;;4.85;1.70;;;;;;;;;;3369557;42;20565;-66
2022/10/06 11:15:54;;;;;;;5.25;1.90;;;;;;;;;;3382157;42;20570;-64
2022/10/06 11:18:35;;;;;;;5.57;2.10;;;;;;;;;;3383395;42;20087;-62
2022/10/06 11:21:19;;;;;;;4.80;1.80;;;;;;;;;;3375777;42;20093;-64
2022/10/06 11:24:14;;;;;;;5.15;1.70;;;;;;;;;;3375203;42;20141;-65
2022/10/06 11:26:47;;;;;;;5.85;2.08;;;;;;;;;;3380112;42;20110;-65
2022/10/06 11:29:46;;;;;;;12.27;1.80;;;;;;;;;;3383224;42;20107;-65
2022/10/06 11:32:39;;;;;;;6.75;1.40;;;;;;;;;;3385781;42;20079;-63
2022/10/06 11:35:25;;;;;;;4.90;1.50;;;;;;;;;;3381145;42;20113;-64
2022/10/06 11:37:59;;;;;;;7.32;1.88;;;;;;;;;;3375029;42;20658;-64
2022/10/06 11:40:42;;;;;;;4.50;1.42;;;;;;;;;;3376805;42;20584;-63
2022/10/06 11:43:17;;;;;;;6.38;1.38;;;;;;;;;;3380894;42;20098;-64
2022/10/06 11:46:17;;;;;;;4.93;1.35;;;;;;;;;;3376495;42;20090;-66
2022/10/06 11:48:48;;;;;;;23.07;3.00;;;;;;;;;;3379341;42;20118;-64
2022/10/06 11:51:23;;;;;;;8.00;1.60;;;;;;;;;;3383271;42;20091;-65
2022/10/06 11:53:54;;;;;;;5.05;1.50;;;;;;;;;;3384390;42;20091;-66
2022/10/06 11:56:36;;;;;;;8.27;2.00;;;;;;;;;;3376057;42;20094;-66
2022/10/06 11:59:12;;;;;;;4.65;1.50;;;;;;;;;;3382839;42;20094;-64
2022/10/06 12:01:46;;;;;;;5.67;1.30;;;;;;;;;;3381408;42;20186;-64
2022/10/06 12:04:18;;;;;;;3.67;1.20;;;;;;;;;;3383971;42;20180;-65
2022/10/06 12:06:49;;;;;;;3.80;1.20;;;;;;;;;;3375606;42;20091;-64
2022/10/06 12:09:39;;;;;;;4.68;1.30;;;;;;;;;;3382997;42;20099;-64
2022/10/06 12:12:13;;;;;;;4.78;1.50;;;;;;;;;;3374160;42;20103;-65
2022/10/06 12:15:00;;;;;;;4.40;1.53;;;;;;;;;;3383665;42;20116;-65
2022/10/06 12:17:41;;;;;;;4.40;1.30;;;;;;;;;;3383040;42;20575;-63
2022/10/06 12:20:21;;;;;;;4.20;1.25;;;;;;;;;;3373051;42;20099;-64
2022/10/06 12:23:02;;;;;;;5.47;1.60;;;;;;;;;;3375378;42;20075;-64
2022/10/06 12:25:55;;;;;;;7.68;2.13;;;;;;;;;;3375681;42;20129;-68
2022/10/06 12:28:48;;;;;;;5.30;1.90;;;;;;;;;;3380901;42;20091;-64
2022/10/06 12:31:34;;;;;;;5.82;2.00;;;;;;;;;;3381484;42;20087;-63
2022/10/06 12:34:41;;;;;;;7.55;2.35;;;;;;;;;;3382148;42;20184;-67
2022/10/06 12:37:28;;;;;;;5.65;1.85;;;;;;;;;;3377581;42;20095;-62
2022/10/06 12:40:38;;;;;;;6.07;1.92;;;;;;;;;;3379885;42;20525;-68
2022/10/06 12:43:19;;;;;;;5.33;1.93;;;;;;;;;;3384785;42;20098;-63
2022/10/06 12:46:21;;;;;;;6.28;2.00;;;;;;;;;;3378934;42;20134;-63
2022/10/06 12:49:03;;;;;;;5.68;1.80;;;;;;;;;;3375930;42;20600;-65
2022/10/06 12:51:37;;;;;;;5.20;1.48;;;;;;;;;;3371573;42;20142;-63
2022/10/06 12:54:18;;;;;;;5.68;1.83;;;;;;;;;;3374202;42;20098;-63
2022/10/06 12:57:02;;;;;;;4.37;1.50;;;;;;;;;;3379891;42;20099;-63
2022/10/06 12:59:34;;;;;;;6.80;1.70;;;;;;;;;;3380061;42;20600;-63
2022/10/06 13:02:21;;;;;;;7.25;1.90;;;;;;;;;;3378182;42;20095;-62
2022/10/06 13:04:53;;;;;;;6.43;1.83;;;;;;;;;;3375129;42;20091;-65
2022/10/06 13:07:29;;;;;;;5.43;1.60;;;;;;;;;;3374336;42;20666;-65
2022/10/06 13:10:16;;;;;;;6.57;1.80;;;;;;;;;;3382723;42;20168;-65
2022/10/06 13:12:49;;;;;;;5.35;1.70;;;;;;;;;;3375231;42;20189;-65
2022/10/06 13:15:29;;;;;;;5.63;1.73;;;;;;;;;;3381262;42;20270;-64
2022/10/06 13:18:13;;;;;;;7.70;1.90;;;;;;;;;;3372993;42;20151;-63
2022/10/06 13:20:57;;;;;;;4.80;2.00;;;;;;;;;;3374873;42;20103;-65
2022/10/06 13:23:35;;;;;;;10.47;1.70;;;;;;;;;;3375045;42;20183;-64
2022/10/06 13:26:12;;;;;;;6.82;1.50;;;;;;;;;;3375338;42;20183;-65
2022/10/06 13:28:43;;;;;;;5.63;1.65;;;;;;;;;;3386705;42;20512;-64
2022/10/06 13:31:33;;;;;;;5.70;1.70;;;;;;;;;;3383813;42;20082;-64
2022/10/06 13:34:14;;;;;;;4.88;1.88;;;;;;;;;;3382886;42;20553;-62
2022/10/06 13:36:49;;;;;;;4.87;1.70;;;;;;;;;;3375221;42;20170;-64
2022/10/06 13:39:25;;;;;;;8.55;1.98;;;;;;;;;;3382532;42;20142;-64
2022/10/06 13:42:15;;;;;;;6.63;2.03;;;;;;;;;;3382538;42;20090;-65
2022/10/06 13:44:58;;;;;;;8.38;1.85;;;;;;;;;;3381304;42;20083;-65
2022/10/06 13:47:29;;;;;;;5.43;1.70;;;;;;;;;;3375638;42;20091;-64
2022/10/06 13:50:05;;;;;;;9.07;2.00;;;;;;;;;;3382811;42;20699;-64
2022/10/06 13:52:45;;;;;;;6.18;2.10;;;;;;;;;;3361290;42;20175;-65
2022/10/06 13:55:23;;;;;;;6.35;1.67;;;;;;;;;;3374588;42;20654;-67
2022/10/06 13:58:00;;;;;;;9.90;2.20;;;;;;;;;;3373250;42;20094;-66
2022/10/06 14:00:47;;;;;;;5.65;2.00;;;;;;;;;;3381691;42;20129;-66
2022/10/06 14:03:24;;;;;;;5.30;2.00;;;;;;;;;;3381152;42;20099;-68
2022/10/06 14:06:10;;;;;;;6.25;2.10;;;;;;;;;;3373571;42;20094;-64
2022/10/06 14:08:42;;;;;;;8.57;1.95;;;;;;;;;;3380684;42;20095;-67
2022/10/06 14:11:13;;;;;;;8.90;1.98;;;;;;;;;;3376171;42;20099;-65
2022/10/06 14:14:03;;;;;;;6.50;2.03;;;;;;;;;;3369395;42;20149;-64
2022/10/06 14:16:35;;;;;;;5.53;2.03;;;;;;;;;;3375598;42;20098;-66
2022/10/06 14:19:06;;;;;;;7.00;2.20;;;;;;;;;;3375192;42;20138;-65
2022/10/06 14:21:40;;;;;;;5.85;2.10;;;;;;;;;;3382116;42;20087;-65
2022/10/06 14:24:14;;;;;;;10.98;2.28;;;;;;;;;;3374974;42;20090;-65
2022/10/06 14:26:48;;;;;;;11.30;2.22;;;;;;;;;;3383264;42;20673;-65
2022/10/06 14:29:19;;;;;;;9.40;2.20;;;;;;;;;;3385753;42;20091;-65
2022/10/06 14:31:51;;;;;;;5.40;2.03;;;;;;;;;;3373924;42;20091;-69
2022/10/06 14:34:22;;;;;;;10.05;2.33;;;;;;;;;;3383102;42;20095;-66
2022/10/06 14:36:54;;;;;;;5.15;1.77;;;;;;;;;;3380463;42;20099;-67
2022/10/06 14:39:27;;;;;;;6.38;1.92;;;;;;;;;;3383785;42;20496;-66
2022/10/06 14:41:58;;;;;;;7.37;2.70;;;;;;;;;;3383235;42;20099;-64
2022/10/06 14:44:30;;;;;;;7.88;2.42;;;;;;;;;;3383262;42;20166;-65
2022/10/06 14:47:01;;;;;;;6.35;2.20;;;;;;;;;;3383926;42;20147;-66
2022/10/06 14:49:32;;;;;;;7.82;2.42;;;;;;;;;;3383858;42;20091;-65
2022/10/06 14:52:04;;;;;;;5.57;2.20;;;;;;;;;;3383149;42;20508;-63
2022/10/06 14:54:35;;;;;;;6.23;2.40;;;;;;;;;;3383138;42;20520;-64
2022/10/06 14:57:08;;;;;;;6.70;2.00;;;;;;;;;;3382790;42;20555;-64
2022/10/06 14:59:39;;;;;;;6.60;2.22;;;;;;;;;;3383730;42;20099;-65
2022/10/06 15:02:10;;;;;;;6.60;2.17;;;;;;;;;;3384017;42;20596;-67
2022/10/06 15:04:42;;;;;;;6.55;2.38;;;;;;;;;;3383897;42;20567;-65
2022/10/06 15:10:04;;;;;;;6.13;2.10;;;;;;;;;;3383374;42;20083;-65
2022/10/06 15:12:35;;;;;;;7.22;2.10;;;;;;;;;;3375852;42;20126;-65
2022/10/06 15:15:07;;;;;;;6.25;2.00;;;;;;;;;;3383783;42;20098;-65
2022/10/06 15:17:39;;;;;;;7.70;2.10;;;;;;;;;;3390734;42;20184;-64
2022/10/06 15:20:13;;;;;;;7.50;1.83;;;;;;;;;;3383335;42;20102;-68
2022/10/06 15:22:44;;;;;;;7.97;2.05;;;;;;;;;;3383746;42;20090;-69
2022/10/06 15:30:55;;;;;;;9.20;2.15;;;;;;;;;;3381801;42;20147;-62
2022/10/06 15:33:29;;;;;;;7.63;2.50;;;;;;;;;;3382905;42;20099;-63
2022/10/06 15:36:17;;;;;;;6.38;2.00;;;;;;;;;;3383162;42;20996;-61
2022/10/06 15:38:48;;;;;;;7.80;2.15;;;;;;;;;;3383453;42;20158;-62
2022/10/06 15:41:20;;;;;;;6.45;2.00;;;;;;;;;;3373950;42;20094;-61
2022/10/06 15:43:56;;;;;;;15.98;2.22;;;;;;;;;;3376376;42;20563;-62
2022/10/06 15:46:34;;;;;;;5.90;1.70;;;;;;;;;;3369196;42;20087;-61
2022/10/06 15:49:09;;;;;;;6.80;2.00;;;;;;;;;;3383356;42;20205;-65
2022/10/06 15:51:47;;;;;;;6.25;2.30;;;;;;;;;;3380860;42;20103;-63
2022/10/06 15:54:20;;;;;;;6.65;1.90;;;;;;;;;;3383015;42;20305;-61